createdAt,value
2023-03-30T00:00:27.310Z,6.00
2023-03-30T00:02:56.146Z,5.90
2023-03-30T00:05:25.985Z,6.67
2023-03-30T00:07:54.774Z,6.50
2023-03-30T00:10:23.394Z,6.17
2023-03-30T00:12:52.839Z,6.90
2023-03-30T00:15:22.668Z,5.93
2023-03-30T00:17:54.948Z,5.93
2023-03-30T00:20:24.023Z,5.33
2023-03-30T00:22:54.363Z,5.93
2023-03-30T00:25:23.420Z,6.57
2023-03-30T00:27:52.173Z,5.30
2023-03-30T00:30:21.625Z,5.80
2023-03-30T00:32:51.923Z,6.20
2023-03-30T00:35:21.091Z,6.30
2023-03-30T00:37:51.413Z,5.77
2023-03-30T00:40:21.329Z,4.90
2023-03-30T00:42:50.107Z,5.30
2023-03-30T00:45:20.972Z,6.20
2023-03-30T00:48:00.331Z,5.50
2023-03-30T00:50:34.955Z,5.60
2023-03-30T00:53:07.109Z,5.90
2023-03-30T00:55:36.047Z,5.50
2023-03-30T00:58:05.105Z,5.63
2023-03-30T01:00:34.240Z,6.00
2023-03-30T01:03:06.567Z,6.20
2023-03-30T01:05:35.291Z,7.10
2023-03-30T01:08:07.492Z,6.40
2023-03-30T01:10:36.236Z,6.10
2023-03-30T01:13:05.347Z,6.10
2023-03-30T01:15:35.143Z,5.67
2023-03-30T01:18:26.243Z,6.00
2023-03-30T01:21:49.416Z,5.97
2023-03-30T01:25:02.888Z,6.20
2023-03-30T01:27:49.764Z,6.23
2023-03-30T01:30:28.971Z,6.70
2023-03-30T01:33:27.218Z,6.33
2023-03-30T01:36:19.039Z,7.20
2023-03-30T01:39:21.679Z,6.20
2023-03-30T01:41:55.939Z,6.00
2023-03-30T01:44:30.348Z,6.87
2023-03-30T01:47:00.547Z,6.90
2023-03-30T01:49:30.433Z,6.70
2023-03-30T01:52:02.634Z,7.47
2023-03-30T01:54:35.918Z,7.73
2023-03-30T01:57:06.330Z,7.57
2023-03-30T01:59:36.789Z,7.10
2023-03-30T02:02:07.267Z,8.17
2023-03-30T02:04:38.753Z,8.27
2023-03-30T02:07:10.071Z,7.53
2023-03-30T02:09:44.584Z,7.20
2023-03-30T02:12:13.329Z,7.30
2023-03-30T02:14:42.680Z,8.73
2023-03-30T02:17:13.752Z,7.40
2023-03-30T02:19:46.080Z,7.70
2023-03-30T02:22:15.384Z,7.60
2023-03-30T02:24:46.427Z,7.17
2023-03-30T02:27:14.948Z,7.40
2023-03-30T02:29:45.043Z,7.27
2023-03-30T02:32:18.136Z,8.00
2023-03-30T02:34:59.140Z,7.57
2023-03-30T02:37:35.829Z,7.77
2023-03-30T02:40:13.438Z,8.00
2023-03-30T02:42:51.305Z,8.57
2023-03-30T02:45:27.306Z,6.87
2023-03-30T02:48:06.010Z,7.53
2023-03-30T02:50:36.087Z,7.97
2023-03-30T02:53:08.566Z,7.37
2023-03-30T02:55:39.842Z,8.40
2023-03-30T02:58:10.335Z,8.33
2023-03-30T03:00:42.527Z,8.53
2023-03-30T03:03:15.312Z,9.00
2023-03-30T03:05:44.828Z,10.07
2023-03-30T03:08:16.886Z,10.33
2023-03-30T03:10:46.875Z,9.27
2023-03-30T03:13:16.198Z,10.23
2023-03-30T03:15:46.441Z,9.90
2023-03-30T03:18:15.122Z,8.70
2023-03-30T03:20:43.724Z,8.80
2023-03-30T03:23:12.343Z,9.07
2023-03-30T03:25:41.051Z,8.80
2023-03-30T03:28:11.048Z,8.67
2023-03-30T03:30:39.782Z,8.17
2023-03-30T03:33:08.472Z,7.73
2023-03-30T03:35:39.478Z,7.20
2023-03-30T03:38:09.002Z,7.27
2023-03-30T03:40:37.633Z,7.77
2023-03-30T03:43:06.376Z,7.80
2023-03-30T03:45:36.321Z,7.40
2023-03-30T03:48:05.006Z,8.07
2023-03-30T03:50:33.695Z,7.67
2023-03-30T03:53:02.315Z,7.30
2023-03-30T03:55:34.765Z,6.80
2023-03-30T03:58:03.471Z,6.87
2023-03-30T04:00:32.164Z,8.27
2023-03-30T04:03:02.260Z,7.10
2023-03-30T04:05:30.995Z,8.30
2023-03-30T04:07:59.623Z,8.57
2023-03-30T04:10:28.185Z,8.10
2023-03-30T04:12:57.308Z,6.93
2023-03-30T04:15:26.049Z,7.90
2023-03-30T04:17:58.118Z,7.63
2023-03-30T04:20:28.898Z,7.17
2023-03-30T04:23:01.768Z,6.70
2023-03-30T04:25:32.949Z,6.93
2023-03-30T04:28:01.501Z,7.33
2023-03-30T04:30:30.684Z,7.33
2023-03-30T04:33:04.493Z,8.27
2023-03-30T04:35:34.998Z,7.27
2023-03-30T04:38:03.615Z,7.00
2023-03-30T04:40:33.029Z,7.23
2023-03-30T04:43:03.746Z,6.70
2023-03-30T04:45:36.732Z,6.03
2023-03-30T04:48:05.479Z,7.17
2023-03-30T04:50:35.628Z,6.20
2023-03-30T04:53:04.234Z,7.37
2023-03-30T04:55:32.806Z,6.27
2023-03-30T04:58:01.430Z,6.73
2023-03-30T05:00:30.121Z,7.17
2023-03-30T05:02:58.891Z,7.23
2023-03-30T05:05:27.589Z,6.70
2023-03-30T05:07:57.625Z,6.57
2023-03-30T05:10:26.268Z,6.80
2023-03-30T05:12:56.026Z,6.27
2023-03-30T05:15:24.685Z,6.37
2023-03-30T05:17:53.495Z,6.63
2023-03-30T05:20:22.153Z,6.67
2023-03-30T05:22:51.171Z,6.87
2023-03-30T05:25:21.467Z,5.80
2023-03-30T05:27:50.083Z,5.63
2023-03-30T05:30:18.814Z,5.80
2023-03-30T05:32:47.433Z,6.00
2023-03-30T05:35:16.181Z,7.10
2023-03-30T05:37:44.823Z,5.77
2023-03-30T05:40:13.825Z,5.27
2023-03-30T05:42:43.799Z,6.23
2023-03-30T05:45:12.575Z,6.00
2023-03-30T05:47:41.235Z,5.60
2023-03-30T05:50:11.468Z,5.97
2023-03-30T05:52:40.097Z,5.23
2023-03-30T05:55:13.600Z,5.80
2023-03-30T05:57:43.548Z,5.80
2023-03-30T06:00:13.769Z,5.40
2023-03-30T06:02:42.441Z,5.03
2023-03-30T06:05:12.159Z,5.60
2023-03-30T06:07:40.737Z,5.00
2023-03-30T06:10:14.021Z,5.27
2023-03-30T06:12:44.017Z,6.07
2023-03-30T06:15:13.102Z,5.60
2023-03-30T06:17:41.773Z,5.53
2023-03-30T06:20:12.631Z,5.60
2023-03-30T06:22:41.905Z,5.70
2023-03-30T06:25:13.572Z,6.20
2023-03-30T06:27:44.796Z,5.67
2023-03-30T06:30:15.341Z,5.60
2023-03-30T06:32:46.057Z,5.13
2023-03-30T06:35:15.833Z,5.30
2023-03-30T06:37:44.624Z,4.80
2023-03-30T06:40:14.631Z,4.80
2023-03-30T06:42:45.086Z,4.80
2023-03-30T06:45:13.973Z,4.97
2023-03-30T06:47:42.937Z,4.40
2023-03-30T06:50:13.454Z,4.70
2023-03-30T06:52:44.425Z,4.97
2023-03-30T06:55:13.108Z,4.70
2023-03-30T06:57:43.266Z,4.87
2023-03-30T07:00:14.065Z,4.53
2023-03-30T07:02:42.906Z,4.63
2023-03-30T07:05:13.044Z,4.73
2023-03-30T07:07:41.744Z,5.50
2023-03-30T07:10:12.739Z,4.70
2023-03-30T07:12:42.719Z,4.40
2023-03-30T07:15:13.465Z,4.77
2023-03-30T07:17:42.329Z,5.70
2023-03-30T07:20:14.878Z,5.90
2023-03-30T07:22:43.706Z,5.23
2023-03-30T07:25:12.290Z,5.40
2023-03-30T07:27:41.069Z,5.20
2023-03-30T07:30:21.337Z,5.27
2023-03-30T07:32:51.506Z,5.37
2023-03-30T07:35:24.232Z,5.00
2023-03-30T07:38:00.445Z,4.80
2023-03-30T07:40:33.827Z,4.87
2023-03-30T07:43:02.441Z,4.33
2023-03-30T07:45:32.485Z,4.80
2023-03-30T07:48:01.175Z,4.30
2023-03-30T07:50:31.895Z,4.57
2023-03-30T07:53:00.691Z,4.73
2023-03-30T07:55:33.778Z,4.10
2023-03-30T07:58:02.626Z,4.37
2023-03-30T08:00:36.814Z,3.80
2023-03-30T08:03:05.526Z,4.30
2023-03-30T08:05:34.179Z,4.03
2023-03-30T08:08:02.888Z,3.50
2023-03-30T08:10:31.506Z,4.23
2023-03-30T08:13:00.111Z,4.10
2023-03-30T08:15:28.872Z,4.10
2023-03-30T08:17:59.036Z,3.90
2023-03-30T08:20:27.760Z,3.70
2023-03-30T08:22:56.338Z,4.10
2023-03-30T08:25:24.933Z,4.20
2023-03-30T08:27:56.262Z,4.60
2023-03-30T08:30:27.189Z,4.50
2023-03-30T08:32:55.946Z,4.20
2023-03-30T08:35:26.116Z,4.17
2023-03-30T08:37:55.462Z,4.27
2023-03-30T08:40:24.173Z,3.27
2023-03-30T08:43:16.398Z,3.33
2023-03-30T08:45:45.270Z,3.70
2023-03-30T08:48:20.122Z,2.50
2023-03-30T08:50:54.476Z,3.30
2023-03-30T08:53:23.474Z,2.40
2023-03-30T08:55:52.949Z,2.97
2023-03-30T08:58:25.345Z,2.77
2023-03-30T09:00:56.347Z,3.00
2023-03-30T09:03:27.953Z,2.50
2023-03-30T09:06:00.116Z,2.53
2023-03-30T09:08:29.754Z,2.93
2023-03-30T09:10:59.559Z,2.47
2023-03-30T09:13:29.675Z,2.77
2023-03-30T09:16:02.373Z,2.47
2023-03-30T09:18:32.277Z,3.57
2023-03-30T09:21:03.698Z,2.40
2023-03-30T09:23:33.060Z,2.90
2023-03-30T09:26:07.130Z,2.30
2023-03-30T09:28:39.898Z,2.50
2023-03-30T09:31:13.199Z,2.20
2023-03-30T09:33:45.827Z,2.63
2023-03-30T09:36:17.818Z,2.40
2023-03-30T09:38:46.646Z,2.93
2023-03-30T09:41:49.346Z,2.27
2023-03-30T09:44:22.445Z,2.20
2023-03-30T09:46:51.646Z,2.47
2023-03-30T09:49:22.397Z,3.10
2023-03-30T09:51:57.776Z,2.63
2023-03-30T09:54:26.401Z,1.77
2023-03-30T09:56:58.058Z,2.80
2023-03-30T09:59:34.319Z,2.73
2023-03-30T10:02:19.034Z,1.93
2023-03-30T10:05:06.730Z,2.20
2023-03-30T10:07:37.817Z,2.20
2023-03-30T10:10:17.744Z,3.17
2023-03-30T10:12:46.962Z,3.03
2023-03-30T10:15:19.247Z,2.00
2023-03-30T10:17:48.544Z,3.03
2023-03-30T10:20:28.120Z,2.73
2023-03-30T10:23:00.402Z,2.70
2023-03-30T10:25:31.487Z,2.73
2023-03-30T10:28:04.879Z,2.63
2023-03-30T10:30:33.712Z,2.60
2023-03-30T10:33:03.716Z,2.43
2023-03-30T10:35:34.565Z,3.00
2023-03-30T10:38:05.113Z,2.77
2023-03-30T10:40:36.643Z,2.90
2023-03-30T10:43:06.149Z,3.87
2023-03-30T10:45:37.277Z,2.30
2023-03-30T10:48:20.144Z,3.07
2023-03-30T10:50:52.149Z,3.23
2023-03-30T10:53:28.794Z,2.30
2023-03-30T10:55:59.309Z,2.77
2023-03-30T10:58:34.875Z,2.00
2023-03-30T11:01:09.019Z,3.00
2023-03-30T11:03:37.806Z,3.07
2023-03-30T11:06:10.323Z,2.77
2023-03-30T11:08:42.275Z,2.30
2023-03-30T11:11:11.707Z,2.87
2023-03-30T11:13:41.543Z,2.70
2023-03-30T11:16:12.199Z,2.57
2023-03-30T11:18:43.070Z,2.30
2023-03-30T11:21:14.203Z,2.90
2023-03-30T11:23:46.542Z,2.80
2023-03-30T11:26:16.899Z,2.63
2023-03-30T11:28:52.901Z,3.13
2023-03-30T11:31:31.451Z,2.90
2023-03-30T11:34:01.828Z,3.13
2023-03-30T11:36:32.048Z,2.30
2023-03-30T11:39:05.597Z,2.70
2023-03-30T11:41:37.827Z,2.70
2023-03-30T11:44:06.922Z,2.70
2023-03-30T11:46:40.117Z,2.90
2023-03-30T11:49:26.403Z,3.27
2023-03-30T11:52:19.417Z,2.80
2023-03-30T11:55:12.270Z,2.90
2023-03-30T11:57:44.404Z,2.83
2023-03-30T12:00:29.540Z,2.20
2023-03-30T12:03:02.965Z,2.10
2023-03-30T12:05:33.144Z,2.57
2023-03-30T12:08:04.816Z,3.47
2023-03-30T12:10:37.822Z,2.30
2023-03-30T12:13:06.412Z,2.70
2023-03-30T12:15:40.430Z,2.40
2023-03-30T12:18:16.524Z,2.83
2023-03-30T12:20:46.986Z,2.60
2023-03-30T12:23:23.587Z,2.33
2023-03-30T12:26:08.151Z,2.40
2023-03-30T12:29:11.200Z,2.70
2023-03-30T12:31:52.746Z,3.40
2023-03-30T12:34:21.841Z,3.20
2023-03-30T12:36:51.010Z,2.80
2023-03-30T12:39:21.841Z,2.80
2023-03-30T12:41:52.068Z,2.60
2023-03-30T12:44:32.626Z,2.97
2023-03-30T12:47:15.429Z,3.00
2023-03-30T12:49:52.111Z,2.53
2023-03-30T12:52:27.726Z,2.77
2023-03-30T12:55:27.996Z,2.67
2023-03-30T12:58:07.696Z,2.50
2023-03-30T13:01:01.195Z,2.27
2023-03-30T13:03:40.863Z,2.63
2023-03-30T13:06:14.081Z,3.23
2023-03-30T13:08:43.059Z,3.17
2023-03-30T13:11:16.033Z,2.07
2023-03-30T13:13:54.376Z,2.60
2023-03-30T13:16:49.428Z,3.43
2023-03-30T13:19:23.785Z,3.07
2023-03-30T13:21:57.583Z,2.43
2023-03-30T13:24:28.483Z,2.40
2023-03-30T13:27:11.094Z,2.40
2023-03-30T13:29:41.136Z,2.40
2023-03-30T13:32:16.523Z,2.63
2023-03-30T13:35:07.257Z,3.30
2023-03-30T13:37:49.641Z,3.00
2023-03-30T13:40:30.760Z,2.20
2023-03-30T13:43:07.256Z,3.33
2023-03-30T13:45:40.293Z,3.53
2023-03-30T13:48:23.436Z,2.90
2023-03-30T13:50:53.192Z,2.83
2023-03-30T13:53:21.777Z,2.73
2023-03-30T13:55:50.645Z,2.63
2023-03-30T13:58:20.407Z,2.60
2023-03-30T14:00:51.893Z,1.93
2023-03-30T14:03:31.470Z,2.40
2023-03-30T14:06:05.508Z,2.23
2023-03-30T14:08:36.155Z,3.00
2023-03-30T14:11:06.996Z,1.97
2023-03-30T14:13:36.082Z,1.73
2023-03-30T14:16:07.558Z,1.47
2023-03-30T14:18:36.458Z,1.90
2023-03-30T14:21:06.348Z,1.83
2023-03-30T14:31:12.325Z,2.17
2023-03-30T14:33:41.284Z,2.57
2023-03-30T14:36:12.027Z,2.73
2023-03-30T14:38:41.922Z,2.60
2023-03-30T14:41:12.165Z,2.77
2023-03-30T14:43:41.561Z,2.60
2023-03-30T14:46:12.839Z,1.70
2023-03-30T14:48:42.951Z,1.70
2023-03-30T14:51:23.604Z,1.80
2023-03-30T14:53:52.904Z,2.50
2023-03-30T14:56:22.789Z,2.60
2023-03-30T14:58:52.321Z,2.43
2023-03-30T15:01:24.683Z,2.00
2023-03-30T15:03:53.268Z,2.13
2023-03-30T15:06:24.491Z,2.73
2023-03-30T15:08:53.506Z,2.43
2023-03-30T15:11:22.787Z,2.03
2023-03-30T15:13:52.639Z,2.40
2023-03-30T15:16:24.659Z,2.43
2023-03-30T15:18:53.324Z,3.00
2023-03-30T15:21:21.917Z,2.90
2023-03-30T15:23:51.236Z,3.03
2023-03-30T15:26:19.796Z,1.97
2023-03-30T15:28:49.564Z,2.80
2023-03-30T15:31:18.190Z,2.93
2023-03-30T15:33:50.427Z,2.87
2023-03-30T15:36:20.086Z,3.70
2023-03-30T15:38:49.901Z,4.23
2023-03-30T15:41:19.419Z,4.80
2023-03-30T15:43:58.341Z,5.10
2023-03-30T15:46:28.934Z,4.10
2023-03-30T15:48:59.427Z,2.93
2023-03-30T15:51:29.890Z,1.93
2023-03-30T15:54:00.470Z,2.50
2023-03-30T15:56:31.917Z,2.30
2023-03-30T15:59:00.517Z,2.93
2023-03-30T16:01:40.821Z,3.10
2023-03-30T16:04:12.075Z,2.00
2023-03-30T16:06:43.135Z,2.60
2023-03-30T16:09:12.643Z,1.90
2023-03-30T16:11:41.223Z,1.70
2023-03-30T16:14:11.893Z,4.33
2023-03-30T16:16:40.529Z,2.83
2023-03-30T16:19:13.403Z,2.80
2023-03-30T16:21:43.296Z,2.60
2023-03-30T16:24:13.863Z,2.13
2023-03-30T16:26:44.583Z,2.57
2023-03-30T16:29:16.689Z,2.80
2023-03-30T16:31:45.333Z,2.47
2023-03-30T16:34:17.325Z,1.97
2023-03-30T16:36:45.869Z,2.03
2023-03-30T16:39:18.705Z,2.00
2023-03-30T16:41:48.305Z,2.10
2023-03-30T16:44:16.899Z,3.57
2023-03-30T16:46:45.544Z,2.67
2023-03-30T16:49:16.546Z,7.50
2023-03-30T16:51:45.417Z,5.03
2023-03-30T16:54:29.467Z,3.33
2023-03-30T16:56:59.751Z,2.83
2023-03-30T16:59:30.239Z,2.80
2023-03-30T17:01:59.156Z,2.33
2023-03-30T17:04:29.142Z,2.67
2023-03-30T17:06:57.775Z,2.67
2023-03-30T17:09:27.132Z,2.63
2023-03-30T17:11:55.791Z,2.30
2023-03-30T17:14:24.415Z,3.33
2023-03-30T17:16:53.150Z,3.30
2023-03-30T17:19:21.916Z,2.93
2023-03-30T17:21:52.120Z,2.47
2023-03-30T17:24:20.694Z,1.97
2023-03-30T17:26:49.509Z,2.20
2023-03-30T17:29:18.048Z,3.40
2023-03-30T17:31:46.604Z,2.50
2023-03-30T17:34:15.688Z,2.73
2023-03-30T17:36:44.262Z,2.90
2023-03-30T17:39:17.435Z,3.50
2023-03-30T17:41:48.240Z,2.63
2023-03-30T17:44:16.896Z,3.20
2023-03-30T17:46:47.827Z,3.73
2023-03-30T17:49:17.533Z,3.30
2023-03-30T17:51:47.103Z,3.90
2023-03-30T17:54:17.054Z,4.80
2023-03-30T17:56:45.639Z,4.67
2023-03-30T17:59:14.590Z,5.23
2023-03-30T18:01:43.323Z,3.80
2023-03-30T18:04:12.069Z,3.93
2023-03-30T18:06:41.201Z,4.30
2023-03-30T18:09:13.807Z,3.67
2023-03-30T18:11:44.050Z,3.50
2023-03-30T18:14:12.655Z,4.40
2023-03-30T18:16:43.528Z,4.83
2023-03-30T18:19:12.608Z,4.13
2023-03-30T18:21:43.091Z,4.13
2023-03-30T18:24:13.823Z,3.97
2023-03-30T18:26:43.750Z,4.50
2023-03-30T18:29:20.217Z,3.80
2023-03-30T18:31:49.272Z,4.30
2023-03-30T18:34:19.520Z,4.40
2023-03-30T18:36:48.182Z,5.67
2023-03-30T18:39:19.699Z,4.90
2023-03-30T18:41:49.745Z,5.00
2023-03-30T18:44:18.324Z,7.53
2023-03-30T18:46:50.798Z,8.30
2023-03-30T18:49:21.172Z,5.13
2023-03-30T18:51:52.191Z,4.50
2023-03-30T18:54:20.765Z,7.80
2023-03-30T18:56:52.533Z,4.80
2023-03-30T18:59:25.019Z,4.60
2023-03-30T19:01:53.802Z,4.50
2023-03-30T19:04:22.531Z,4.10
2023-03-30T19:06:52.917Z,4.10
2023-03-30T19:09:36.434Z,3.77
2023-03-30T19:12:12.837Z,4.13
2023-03-30T19:14:41.402Z,4.00
2023-03-30T19:17:09.986Z,4.13
2023-03-30T19:19:38.583Z,3.13
2023-03-30T19:22:07.157Z,3.13
2023-03-30T19:24:37.851Z,3.23
2023-03-30T19:27:07.769Z,4.40
2023-03-30T19:29:37.812Z,4.07
2023-03-30T19:32:06.508Z,3.90
2023-03-30T19:34:35.071Z,4.00
2023-03-30T19:37:03.655Z,4.13
2023-03-30T19:39:32.205Z,4.07
2023-03-30T19:42:00.873Z,3.80
2023-03-30T19:44:29.443Z,3.97
2023-03-30T19:47:01.117Z,3.43
2023-03-30T19:49:29.934Z,3.70
2023-03-30T19:51:58.548Z,3.00
2023-03-30T19:54:27.217Z,1.50
2023-03-30T19:56:55.982Z,1.10
2023-03-30T19:59:24.693Z,1.53
2023-03-30T20:01:53.351Z,0.80
2023-03-30T20:04:23.486Z,1.23
2023-03-30T20:06:52.084Z,1.10
2023-03-30T20:09:21.126Z,0.90
2023-03-30T20:11:49.716Z,1.00
2023-03-30T20:14:20.394Z,1.10
2023-03-30T20:16:49.814Z,0.77
2023-03-30T20:19:29.032Z,0.90
2023-03-30T20:22:00.064Z,1.40
2023-03-30T20:24:28.865Z,1.13
2023-03-30T20:26:57.446Z,1.20
2023-03-30T20:29:26.021Z,1.00
2023-03-30T20:31:55.251Z,1.40
2023-03-30T20:34:24.194Z,1.40
2023-03-30T20:36:52.782Z,1.00
2023-03-30T20:39:26.679Z,1.20
2023-03-30T20:41:58.148Z,1.23
2023-03-30T20:44:31.150Z,1.30
2023-03-30T20:47:00.056Z,1.50
2023-03-30T20:49:28.685Z,1.30
2023-03-30T20:52:00.817Z,1.57
2023-03-30T20:54:31.023Z,1.63
2023-03-30T20:56:59.731Z,1.60
2023-03-30T20:59:29.172Z,1.63
2023-03-30T21:02:00.258Z,1.40
2023-03-30T21:04:29.060Z,2.97
2023-03-30T21:06:57.749Z,2.00
2023-03-30T21:09:27.166Z,2.20
2023-03-30T21:11:57.183Z,2.40
2023-03-30T21:14:26.421Z,2.00
2023-03-30T21:16:55.091Z,2.10
2023-03-30T21:19:23.766Z,2.13
2023-03-30T21:21:53.421Z,2.00
2023-03-30T21:24:24.056Z,1.90
2023-03-30T21:26:52.669Z,1.93
2023-03-30T21:29:24.942Z,2.50
2023-03-30T21:31:57.809Z,1.93
2023-03-30T21:34:28.272Z,2.20
2023-03-30T21:36:57.042Z,2.00
2023-03-30T21:39:25.748Z,2.03
2023-03-30T21:41:54.322Z,1.73
2023-03-30T21:44:24.373Z,1.97
2023-03-30T21:46:53.077Z,2.23
2023-03-30T21:49:21.666Z,2.53
2023-03-30T21:51:50.326Z,2.30
2023-03-30T21:54:19.448Z,2.43
2023-03-30T21:56:49.036Z,2.97
2023-03-30T21:59:18.858Z,2.40
2023-03-30T22:01:48.879Z,2.63
2023-03-30T22:04:17.587Z,2.20
2023-03-30T22:06:46.658Z,2.43
2023-03-30T22:09:17.382Z,2.70
2023-03-30T22:11:46.092Z,2.07
2023-03-30T22:14:14.657Z,2.50
2023-03-30T22:16:43.497Z,3.07
2023-03-30T22:19:15.273Z,2.63
2023-03-30T22:21:43.921Z,2.87
2023-03-30T22:24:13.341Z,3.73
2023-03-30T22:26:42.045Z,2.30
2023-03-30T22:29:10.673Z,2.43
2023-03-30T22:31:39.464Z,2.70
2023-03-30T22:34:08.452Z,2.10
2023-03-30T22:36:38.604Z,2.37
2023-03-30T22:39:07.190Z,2.90
2023-03-30T22:41:36.370Z,2.50
2023-03-30T22:44:04.981Z,2.80
2023-03-30T22:46:33.657Z,2.57
2023-03-30T22:49:02.665Z,3.23
2023-03-30T22:51:38.185Z,1.83
2023-03-30T22:54:08.502Z,2.90
2023-03-30T22:56:37.134Z,2.30
2023-03-30T22:59:05.961Z,2.00
2023-03-30T23:01:34.825Z,2.00
2023-03-30T23:04:04.479Z,2.43
2023-03-30T23:06:36.318Z,2.73
2023-03-30T23:09:04.993Z,1.93
2023-03-30T23:11:35.025Z,2.07
2023-03-30T23:14:06.024Z,1.90
2023-03-30T23:16:35.875Z,1.60
2023-03-30T23:19:04.989Z,1.57
2023-03-30T23:21:35.957Z,2.27
2023-03-30T23:24:05.305Z,1.90
2023-03-30T23:26:35.463Z,1.30
2023-03-30T23:29:04.532Z,2.07
2023-03-30T23:31:34.610Z,2.10
2023-03-30T23:34:03.277Z,1.97
2023-03-30T23:36:31.868Z,1.77
2023-03-30T23:39:00.466Z,2.07
2023-03-30T23:41:29.109Z,1.73
2023-03-30T23:44:00.754Z,1.87
2023-03-30T23:46:29.760Z,2.17
2023-03-30T23:48:58.424Z,1.90
2023-03-30T23:51:27.092Z,1.70
2023-03-30T23:53:57.646Z,2.00
2023-03-30T23:56:27.557Z,1.80
2023-03-30T23:58:56.798Z,1.93
